sensor_id;sensor_type;location;lat;lon;timestamp;pressure;altitude;pressure_sealevel;temperature;humidity
25420;BME280;13354;48.174;11.566;2023-07-20T00:02:12;95479.13;;;23.56;46.48
25420;BME280;13354;48.174;11.566;2023-07-20T00:04:38;95485.16;;;23.37;47.31
25420;BME280;13354;48.174;11.566;2023-07-20T00:07:03;95484.38;;;23.32;47.03
25420;BME280;13354;48.174;11.566;2023-07-20T00:09:29;95488.69;;;23.33;47.62
25420;BME280;13354;48.174;11.566;2023-07-20T00:11:54;95491.09;;;23.39;46.97
25420;BME280;13354;48.174;11.566;2023-07-20T00:14:20;95490.34;;;23.29;47.26
25420;BME280;13354;48.174;11.566;2023-07-20T00:16:46;95487.88;;;23.32;47.03
25420;BME280;13354;48.174;11.566;2023-07-20T00:19:12;95490.03;;;23.35;47.10
25420;BME280;13354;48.174;11.566;2023-07-20T00:21:38;95487.09;;;23.27;47.01
25420;BME280;13354;48.174;11.566;2023-07-20T00:24:05;95485.19;;;23.32;47.16
25420;BME280;13354;48.174;11.566;2023-07-20T00:26:31;95487.66;;;23.24;47.17
25420;BME280;13354;48.174;11.566;2023-07-20T00:28:56;95484.72;;;23.15;47.76
25420;BME280;13354;48.174;11.566;2023-07-20T00:31:21;95486.09;;;23.12;47.90
25420;BME280;13354;48.174;11.566;2023-07-20T00:33:47;95488.72;;;23.28;47.20
25420;BME280;13354;48.174;11.566;2023-07-20T00:36:12;95479.81;;;23.22;47.52
25420;BME280;13354;48.174;11.566;2023-07-20T00:38:38;95493.84;;;23.29;47.29
25420;BME280;13354;48.174;11.566;2023-07-20T00:41:03;95501.44;;;23.27;47.45
25420;BME280;13354;48.174;11.566;2023-07-20T00:43:28;95507.41;;;23.14;47.65
25420;BME280;13354;48.174;11.566;2023-07-20T00:45:54;95513.09;;;23.12;47.71
25420;BME280;13354;48.174;11.566;2023-07-20T00:48:20;95504.38;;;23.26;47.35
25420;BME280;13354;48.174;11.566;2023-07-20T00:50:46;95498.75;;;23.12;47.91
25420;BME280;13354;48.174;11.566;2023-07-20T00:53:12;95503.34;;;23.17;47.72
25420;BME280;13354;48.174;11.566;2023-07-20T00:55:37;95500.88;;;23.25;47.47
25420;BME280;13354;48.174;11.566;2023-07-20T00:58:03;95503.63;;;23.15;47.89
25420;BME280;13354;48.174;11.566;2023-07-20T01:00:29;95501.19;;;23.13;48.00
25420;BME280;13354;48.174;11.566;2023-07-20T01:02:54;95496.31;;;23.21;47.53
25420;BME280;13354;48.174;11.566;2023-07-20T01:05:20;95493.91;;;23.14;47.91
25420;BME280;13354;48.174;11.566;2023-07-20T01:07:53;95502.84;;;23.09;48.05
25420;BME280;13354;48.174;11.566;2023-07-20T01:10:28;95511.22;;;23.03;48.20
25420;BME280;13354;48.174;11.566;2023-07-20T01:12:55;95498.81;;;23.02;48.08
25420;BME280;13354;48.174;11.566;2023-07-20T01:15:20;95501.50;;;23.02;48.19
25420;BME280;13354;48.174;11.566;2023-07-20T01:17:46;95500.97;;;23.00;48.60
25420;BME280;13354;48.174;11.566;2023-07-20T01:20:14;95488.00;;;22.97;48.59
25420;BME280;13354;48.174;11.566;2023-07-20T01:23:05;95500.19;;;22.94;48.68
25420;BME280;13354;48.174;11.566;2023-07-20T01:31:24;95498.25;;;23.05;48.33
25420;BME280;13354;48.174;11.566;2023-07-20T01:33:56;95502.34;;;22.87;48.67
25420;BME280;13354;48.174;11.566;2023-07-20T01:36:24;95492.84;;;22.89;48.06
25420;BME280;13354;48.174;11.566;2023-07-20T01:38:51;95495.03;;;22.87;48.36
25420;BME280;13354;48.174;11.566;2023-07-20T01:41:17;95492.06;;;22.89;48.15
25420;BME280;13354;48.174;11.566;2023-07-20T01:43:43;95492.59;;;22.91;47.73
25420;BME280;13354;48.174;11.566;2023-07-20T01:46:08;95506.09;;;22.91;47.81
25420;BME280;13354;48.174;11.566;2023-07-20T01:48:34;95498.00;;;22.91;48.52
25420;BME280;13354;48.174;11.566;2023-07-20T01:50:59;95502.63;;;22.80;48.93
25420;BME280;13354;48.174;11.566;2023-07-20T01:53:24;95498.56;;;22.78;48.46
25420;BME280;13354;48.174;11.566;2023-07-20T01:55:53;95503.97;;;22.83;48.09
25420;BME280;13354;48.174;11.566;2023-07-20T01:58:19;95495.63;;;22.64;48.81
25420;BME280;13354;48.174;11.566;2023-07-20T02:00:44;95506.13;;;22.71;48.97
25420;BME280;13354;48.174;11.566;2023-07-20T02:03:10;95501.84;;;22.59;48.58
25420;BME280;13354;48.174;11.566;2023-07-20T02:05:37;95494.81;;;22.58;48.59
25420;BME280;13354;48.174;11.566;2023-07-20T02:08:02;95500.75;;;22.55;49.06
25420;BME280;13354;48.174;11.566;2023-07-20T02:10:27;95501.84;;;22.59;48.75
25420;BME280;13354;48.174;11.566;2023-07-20T02:12:53;95500.75;;;22.60;48.58
25420;BME280;13354;48.174;11.566;2023-07-20T02:15:18;95508.56;;;22.77;48.54
25420;BME280;13354;48.174;11.566;2023-07-20T02:17:44;95508.56;;;22.67;49.00
25420;BME280;13354;48.174;11.566;2023-07-20T02:20:10;95501.56;;;22.56;49.07
25420;BME280;13354;48.174;11.566;2023-07-20T02:22:39;95506.44;;;22.49;49.28
25420;BME280;13354;48.174;11.566;2023-07-20T02:25:05;95510.75;;;22.45;49.78
25420;BME280;13354;48.174;11.566;2023-07-20T02:27:30;95517.78;;;22.40;49.74
25420;BME280;13354;48.174;11.566;2023-07-20T02:29:56;95514.78;;;22.27;50.41
25420;BME280;13354;48.174;11.566;2023-07-20T02:32:21;95515.63;;;22.32;50.35
25420;BME280;13354;48.174;11.566;2023-07-20T02:34:47;95507.00;;;22.25;50.73
25420;BME280;13354;48.174;11.566;2023-07-20T02:37:12;95507.78;;;22.15;50.91
25420;BME280;13354;48.174;11.566;2023-07-20T02:39:38;95512.66;;;22.18;51.08
25420;BME280;13354;48.174;11.566;2023-07-20T02:42:04;95510.50;;;22.26;50.41
25420;BME280;13354;48.174;11.566;2023-07-20T02:44:29;95511.31;;;22.21;50.11
25420;BME280;13354;48.174;11.566;2023-07-20T02:46:55;95510.22;;;22.22;49.93
25420;BME280;13354;48.174;11.566;2023-07-20T02:49:20;95508.59;;;22.16;50.01
25420;BME280;13354;48.174;11.566;2023-07-20T02:51:45;95516.94;;;22.19;50.01
25420;BME280;13354;48.174;11.566;2023-07-20T02:54:11;95519.41;;;22.21;49.96
25420;BME280;13354;48.174;11.566;2023-07-20T02:56:36;95533.69;;;22.22;49.79
25420;BME280;13354;48.174;11.566;2023-07-20T02:59:02;95534.22;;;22.24;49.68
25420;BME280;13354;48.174;11.566;2023-07-20T03:01:27;95532.03;;;22.15;49.53
25420;BME280;13354;48.174;11.566;2023-07-20T03:03:54;95530.97;;;22.16;49.82
25420;BME280;13354;48.174;11.566;2023-07-20T03:06:20;95529.84;;;22.07;50.26
25420;BME280;13354;48.174;11.566;2023-07-20T03:08:45;95528.50;;;22.05;50.30
25420;BME280;13354;48.174;11.566;2023-07-20T03:11:15;95527.16;;;22.02;49.78
25420;BME280;13354;48.174;11.566;2023-07-20T03:13:41;95535.22;;;21.97;50.10
25420;BME280;13354;48.174;11.566;2023-07-20T03:16:08;95523.63;;;22.02;49.60
25420;BME280;13354;48.174;11.566;2023-07-20T03:18:39;95534.97;;;21.93;50.11
25420;BME280;13354;48.174;11.566;2023-07-20T03:21:05;95539.84;;;22.07;49.08
25420;BME280;13354;48.174;11.566;2023-07-20T03:23:31;95543.84;;;21.94;49.11
25420;BME280;13354;48.174;11.566;2023-07-20T03:25:57;95555.44;;;21.89;49.07
25420;BME280;13354;48.174;11.566;2023-07-20T03:28:22;95563.00;;;21.87;49.06
25420;BME280;13354;48.174;11.566;2023-07-20T03:30:53;95575.81;;;21.60;49.74
25420;BME280;13354;48.174;11.566;2023-07-20T03:33:19;95568.03;;;21.68;49.18
25420;BME280;13354;48.174;11.566;2023-07-20T03:35:44;95558.06;;;21.64;49.26
25420;BME280;13354;48.174;11.566;2023-07-20T03:38:10;95557.81;;;21.65;49.87
25420;BME280;13354;48.174;11.566;2023-07-20T03:40:35;95563.44;;;21.59;50.02
25420;BME280;13354;48.174;11.566;2023-07-20T03:43:00;95570.69;;;21.53;50.88
25420;BME280;13354;48.174;11.566;2023-07-20T03:45:26;95570.66;;;21.43;52.25
25420;BME280;13354;48.174;11.566;2023-07-20T03:47:51;95571.41;;;21.38;53.49
25420;BME280;13354;48.174;11.566;2023-07-20T03:50:16;95568.63;;;21.18;54.69
25420;BME280;13354;48.174;11.566;2023-07-20T03:52:42;95570.78;;;21.21;54.64
25420;BME280;13354;48.174;11.566;2023-07-20T03:55:07;95574.22;;;21.06;55.00
25420;BME280;13354;48.174;11.566;2023-07-20T03:57:32;95574.09;;;20.91;55.54
25420;BME280;13354;48.174;11.566;2023-07-20T03:59:58;95574.81;;;20.76;56.50
25420;BME280;13354;48.174;11.566;2023-07-20T04:02:23;95574.00;;;20.75;56.38
25420;BME280;13354;48.174;11.566;2023-07-20T04:04:49;95576.88;;;20.64;56.59
25420;BME280;13354;48.174;11.566;2023-07-20T04:07:14;95582.22;;;20.59;57.06
25420;BME280;13354;48.174;11.566;2023-07-20T04:09:39;95584.66;;;20.65;56.90
25420;BME280;13354;48.174;11.566;2023-07-20T04:12:06;95584.66;;;20.60;56.91
25420;BME280;13354;48.174;11.566;2023-07-20T04:14:31;95579.75;;;20.52;57.66
25420;BME280;13354;48.174;11.566;2023-07-20T04:16:56;95569.94;;;20.41;58.29
25420;BME280;13354;48.174;11.566;2023-07-20T04:19:22;95571.81;;;20.40;58.19
25420;BME280;13354;48.174;11.566;2023-07-20T04:21:47;95580.31;;;20.27;58.99
25420;BME280;13354;48.174;11.566;2023-07-20T04:24:12;95578.25;;;20.39;58.34
25420;BME280;13354;48.174;11.566;2023-07-20T04:26:37;95577.72;;;20.37;58.66
25420;BME280;13354;48.174;11.566;2023-07-20T04:29:03;95581.75;;;20.40;58.79
25420;BME280;13354;48.174;11.566;2023-07-20T04:31:29;95589.38;;;20.21;59.40
25420;BME280;13354;48.174;11.566;2023-07-20T04:33:54;95585.72;;;20.32;59.11
25420;BME280;13354;48.174;11.566;2023-07-20T04:36:20;95580.44;;;20.42;58.29
25420;BME280;13354;48.174;11.566;2023-07-20T04:38:45;95588.09;;;20.28;59.10
25420;BME280;13354;48.174;11.566;2023-07-20T04:41:11;95582.22;;;20.32;58.80
25420;BME280;13354;48.174;11.566;2023-07-20T04:43:41;95593.34;;;20.40;58.67
25420;BME280;13354;48.174;11.566;2023-07-20T04:46:07;95591.09;;;20.32;59.07
25420;BME280;13354;48.174;11.566;2023-07-20T04:48:33;95594.09;;;20.36;59.05
25420;BME280;13354;48.174;11.566;2023-07-20T04:50:58;95594.56;;;20.27;59.38
25420;BME280;13354;48.174;11.566;2023-07-20T04:53:23;95598.72;;;20.40;58.99
25420;BME280;13354;48.174;11.566;2023-07-20T04:55:49;95598.44;;;20.42;59.08
25420;BME280;13354;48.174;11.566;2023-07-20T04:58:20;95595.38;;;20.55;58.66
25420;BME280;13354;48.174;11.566;2023-07-20T05:00:47;95602.75;;;20.43;59.08
25420;BME280;13354;48.174;11.566;2023-07-20T05:03:13;95600.47;;;20.57;58.27
25420;BME280;13354;48.174;11.566;2023-07-20T05:05:38;95607.94;;;20.49;58.65
25420;BME280;13354;48.174;11.566;2023-07-20T05:08:04;95604.44;;;20.49;58.50
25420;BME280;13354;48.174;11.566;2023-07-20T05:10:29;95603.22;;;20.35;59.24
25420;BME280;13354;48.174;11.566;2023-07-20T05:12:54;95603.22;;;20.35;58.72
25420;BME280;13354;48.174;11.566;2023-07-20T05:15:20;95599.72;;;20.34;58.60
25420;BME280;13354;48.174;11.566;2023-07-20T05:17:45;95607.03;;;20.39;57.87
25420;BME280;13354;48.174;11.566;2023-07-20T05:20:11;95609.81;;;20.49;57.96
25420;BME280;13354;48.174;11.566;2023-07-20T05:22:39;95610.94;;;20.26;57.00
25420;BME280;13354;48.174;11.566;2023-07-20T05:25:08;95604.00;;;20.30;56.46
25420;BME280;13354;48.174;11.566;2023-07-20T05:27:35;95602.22;;;20.41;55.60
25420;BME280;13354;48.174;11.566;2023-07-20T05:30:01;95600.47;;;20.57;54.40
25420;BME280;13354;48.174;11.566;2023-07-20T05:32:27;95601.13;;;20.42;54.59
25420;BME280;13354;48.174;11.566;2023-07-20T05:34:53;95607.59;;;20.41;53.46
25420;BME280;13354;48.174;11.566;2023-07-20T05:37:19;95605.19;;;20.44;53.05
25420;BME280;13354;48.174;11.566;2023-07-20T05:39:44;95608.69;;;20.45;52.38
25420;BME280;13354;48.174;11.566;2023-07-20T05:42:09;95608.28;;;20.58;51.17
25420;BME280;13354;48.174;11.566;2023-07-20T05:44:35;95609.72;;;20.66;50.33
25420;BME280;13354;48.174;11.566;2023-07-20T05:47:01;95610.25;;;20.68;50.32
25420;BME280;13354;48.174;11.566;2023-07-20T05:49:27;95605.97;;;20.72;50.60
25420;BME280;13354;48.174;11.566;2023-07-20T05:51:54;95615.44;;;20.80;50.56
25420;BME280;13354;48.174;11.566;2023-07-20T05:54:21;95622.91;;;20.67;49.16
25420;BME280;13354;48.174;11.566;2023-07-20T05:56:46;95627.25;;;20.73;48.66
25420;BME280;13354;48.174;11.566;2023-07-20T05:59:12;95621.59;;;20.75;48.90
25420;BME280;13354;48.174;11.566;2023-07-20T06:01:37;95625.09;;;20.70;48.66
25420;BME280;13354;48.174;11.566;2023-07-20T06:04:02;95623.78;;;20.78;48.67
25420;BME280;13354;48.174;11.566;2023-07-20T06:06:28;95622.72;;;20.79;48.43
25420;BME280;13354;48.174;11.566;2023-07-20T06:08:54;95629.69;;;20.75;48.27
25420;BME280;13354;48.174;11.566;2023-07-20T06:11:19;95627.28;;;20.79;48.25
25420;BME280;13354;48.174;11.566;2023-07-20T06:13:45;95617.84;;;20.76;48.35
25420;BME280;13354;48.174;11.566;2023-07-20T06:16:10;95624.31;;;20.80;48.53
25420;BME280;13354;48.174;11.566;2023-07-20T06:18:35;95620.41;;;20.93;48.83
25420;BME280;13354;48.174;11.566;2023-07-20T06:21:01;95626.16;;;21.07;48.18
25420;BME280;13354;48.174;11.566;2023-07-20T06:23:26;95624.66;;;21.26;48.88
25420;BME280;13354;48.174;11.566;2023-07-20T06:25:52;95618.28;;;21.37;48.16
25420;BME280;13354;48.174;11.566;2023-07-20T06:28:17;95624.75;;;21.36;47.76
25420;BME280;13354;48.174;11.566;2023-07-20T06:30:43;95619.88;;;21.33;47.48
25420;BME280;13354;48.174;11.566;2023-07-20T06:33:08;95624.75;;;21.41;47.66
25420;BME280;13354;48.174;11.566;2023-07-20T06:35:34;95616.75;;;21.52;47.21
25420;BME280;13354;48.174;11.566;2023-07-20T06:38:00;95625.06;;;21.50;47.57
25420;BME280;13354;48.174;11.566;2023-07-20T06:40:25;95620.41;;;21.35;47.79
25420;BME280;13354;48.174;11.566;2023-07-20T06:42:51;95619.81;;;21.28;47.82
25420;BME280;13354;48.174;11.566;2023-07-20T06:45:16;95617.91;;;21.23;47.72
25420;BME280;13354;48.174;11.566;2023-07-20T06:47:41;95617.09;;;21.28;47.46
25420;BME280;13354;48.174;11.566;2023-07-20T06:50:08;95621.16;;;21.26;48.46
25420;BME280;13354;48.174;11.566;2023-07-20T06:52:33;95613.63;;;21.28;48.22
25420;BME280;13354;48.174;11.566;2023-07-20T06:54:59;95615.06;;;21.40;47.64
25420;BME280;13354;48.174;11.566;2023-07-20T06:57:25;95623.97;;;21.46;47.54
25420;BME280;13354;48.174;11.566;2023-07-20T06:59:50;95625.84;;;21.40;47.83
25420;BME280;13354;48.174;11.566;2023-07-20T07:02:15;95630.06;;;21.31;47.51
25420;BME280;13354;48.174;11.566;2023-07-20T07:04:41;95632.03;;;21.41;47.15
25420;BME280;13354;48.174;11.566;2023-07-20T07:07:07;95622.47;;;21.23;47.78
25420;BME280;13354;48.174;11.566;2023-07-20T07:09:32;95616.97;;;21.40;47.68
25420;BME280;13354;48.174;11.566;2023-07-20T07:11:58;95629.19;;;21.68;46.84
25420;BME280;13354;48.174;11.566;2023-07-20T07:14:23;95623.53;;;21.64;46.88
25420;BME280;13354;48.174;11.566;2023-07-20T07:16:48;95614.91;;;21.62;46.97
25420;BME280;13354;48.174;11.566;2023-07-20T07:19:14;95622.25;;;21.77;46.21
25420;BME280;13354;48.174;11.566;2023-07-20T07:21:39;95613.59;;;21.75;46.15
25420;BME280;13354;48.174;11.566;2023-07-20T07:24:05;95630.94;;;22.00;45.85
25420;BME280;13354;48.174;11.566;2023-07-20T07:26:32;95619.78;;;21.70;45.56
25420;BME280;13354;48.174;11.566;2023-07-20T07:28:57;95612.78;;;21.69;45.70
25420;BME280;13354;48.174;11.566;2023-07-20T07:31:24;95621.16;;;21.73;45.62
25420;BME280;13354;48.174;11.566;2023-07-20T07:33:50;95623.56;;;21.75;45.41
25420;BME280;13354;48.174;11.566;2023-07-20T07:36:15;95622.56;;;21.91;45.51
25420;BME280;13354;48.174;11.566;2023-07-20T07:38:40;95625.16;;;21.70;45.27
25420;BME280;13354;48.174;11.566;2023-07-20T07:41:06;95627.34;;;21.79;45.14
25420;BME280;13354;48.174;11.566;2023-07-20T07:43:31;95621.69;;;21.75;45.94
25420;BME280;13354;48.174;11.566;2023-07-20T07:45:56;95624.72;;;21.94;45.14
25420;BME280;13354;48.174;11.566;2023-07-20T07:48:22;95628.88;;;22.17;43.99
25420;BME280;13354;48.174;11.566;2023-07-20T07:50:47;95626.44;;;22.26;43.80
25420;BME280;13354;48.174;11.566;2023-07-20T07:53:13;95624.28;;;22.23;43.89
25420;BME280;13354;48.174;11.566;2023-07-20T07:55:38;95630.75;;;22.27;44.10
25420;BME280;13354;48.174;11.566;2023-07-20T07:58:04;95633.50;;;22.47;43.89
25420;BME280;13354;48.174;11.566;2023-07-20T08:00:29;95620.84;;;22.58;43.55
25420;BME280;13354;48.174;11.566;2023-07-20T08:02:54;95628.94;;;22.73;42.47
25420;BME280;13354;48.174;11.566;2023-07-20T08:05:20;95624.88;;;22.71;42.74
25420;BME280;13354;48.174;11.566;2023-07-20T08:07:45;95624.59;;;22.77;41.81
25420;BME280;13354;48.174;11.566;2023-07-20T08:10:11;95630.00;;;22.77;42.05
25420;BME280;13354;48.174;11.566;2023-07-20T08:12:36;95626.50;;;22.92;41.71
25420;BME280;13354;48.174;11.566;2023-07-20T08:15:02;95627.56;;;22.81;41.89
25420;BME280;13354;48.174;11.566;2023-07-20T08:17:27;95621.63;;;23.04;41.53
25420;BME280;13354;48.174;11.566;2023-07-20T08:19:52;95625.41;;;23.13;40.88
25420;BME280;13354;48.174;11.566;2023-07-20T08:22:18;95636.75;;;23.15;41.07
25420;BME280;13354;48.174;11.566;2023-07-20T08:24:43;95623.25;;;23.00;41.54
25420;BME280;13354;48.174;11.566;2023-07-20T08:27:09;95627.31;;;23.03;40.84
25420;BME280;13354;48.174;11.566;2023-07-20T08:29:35;95625.38;;;23.29;40.92
25420;BME280;13354;48.174;11.566;2023-07-20T08:32:02;95624.00;;;23.42;40.95
25420;BME280;13354;48.174;11.566;2023-07-20T08:34:27;95631.56;;;23.39;40.70
25420;BME280;13354;48.174;11.566;2023-07-20T08:36:53;95629.91;;;23.49;40.97
25420;BME280;13354;48.174;11.566;2023-07-20T08:39:18;95639.13;;;23.37;40.88
25420;BME280;13354;48.174;11.566;2023-07-20T08:41:43;95636.72;;;23.26;39.78
25420;BME280;13354;48.174;11.566;2023-07-20T08:44:10;95632.16;;;23.11;39.89
25420;BME280;13354;48.174;11.566;2023-07-20T08:46:38;95632.97;;;23.11;40.32
25420;BME280;13354;48.174;11.566;2023-07-20T08:49:03;95632.16;;;23.11;40.32
25420;BME280;13354;48.174;11.566;2023-07-20T08:51:30;95638.38;;;23.06;39.87
25420;BME280;13354;48.174;11.566;2023-07-20T08:53:55;95645.09;;;22.68;41.31
25420;BME280;13354;48.174;11.566;2023-07-20T08:56:23;95627.28;;;22.82;40.96
25420;BME280;13354;48.174;11.566;2023-07-20T08:58:54;95631.09;;;23.07;41.03
25420;BME280;13354;48.174;11.566;2023-07-20T09:01:20;95625.63;;;23.37;40.89
25420;BME280;13354;48.174;11.566;2023-07-20T09:03:46;95623.13;;;23.56;40.10
25420;BME280;13354;48.174;11.566;2023-07-20T09:06:13;95621.81;;;23.54;40.51
25420;BME280;13354;48.174;11.566;2023-07-20T09:08:39;95618.94;;;24.05;39.67
25420;BME280;13354;48.174;11.566;2023-07-20T09:11:05;95616.91;;;24.26;39.59
25420;BME280;13354;48.174;11.566;2023-07-20T09:13:32;95614.53;;;24.19;39.69
25420;BME280;13354;48.174;11.566;2023-07-20T09:15:58;95609.53;;;24.37;39.75
25420;BME280;13354;48.174;11.566;2023-07-20T09:18:29;95616.31;;;24.78;38.83
25420;BME280;13354;48.174;11.566;2023-07-20T09:20:58;95614.53;;;25.27;36.92
25420;BME280;13354;48.174;11.566;2023-07-20T09:23:35;95604.72;;;25.55;36.52
25420;BME280;13354;48.174;11.566;2023-07-20T09:26:02;95601.47;;;25.82;35.50
25420;BME280;13354;48.174;11.566;2023-07-20T09:28:41;95599.34;;;25.79;35.57
25420;BME280;13354;48.174;11.566;2023-07-20T09:31:18;95601.41;;;26.25;35.47
25420;BME280;13354;48.174;11.566;2023-07-20T09:33:44;95600.88;;;26.80;34.78
25420;BME280;13354;48.174;11.566;2023-07-20T09:36:10;95598.25;;;27.07;33.35
25420;BME280;13354;48.174;11.566;2023-07-20T09:38:40;95594.56;;;26.84;33.68
25420;BME280;13354;48.174;11.566;2023-07-20T09:41:06;95603.75;;;26.69;33.75
25420;BME280;13354;48.174;11.566;2023-07-20T09:43:33;95601.44;;;26.63;32.93
25420;BME280;13354;48.174;11.566;2023-07-20T09:45:59;95607.84;;;26.53;33.53
25420;BME280;13354;48.174;11.566;2023-07-20T09:48:25;95609.28;;;26.08;34.40
25420;BME280;13354;48.174;11.566;2023-07-20T09:50:52;95601.16;;;26.26;34.15
25420;BME280;13354;48.174;11.566;2023-07-20T09:53:19;95609.50;;;26.30;34.20
25420;BME280;13354;48.174;11.566;2023-07-20T09:55:45;95603.28;;;26.11;34.35
25420;BME280;13354;48.174;11.566;2023-07-20T09:58:11;95597.69;;;26.21;34.95
25420;BME280;13354;48.174;11.566;2023-07-20T10:00:38;95598.06;;;26.33;34.50
25420;BME280;13354;48.174;11.566;2023-07-20T10:03:05;95592.91;;;26.13;34.75
25420;BME280;13354;48.174;11.566;2023-07-20T10:05:35;95594.38;;;26.43;34.62
25420;BME280;13354;48.174;11.566;2023-07-20T10:08:03;95594.56;;;26.84;34.27
25420;BME280;13354;48.174;11.566;2023-07-20T10:10:31;95595.47;;;26.80;34.19
25420;BME280;13354;48.174;11.566;2023-07-20T10:12:57;95599.34;;;26.92;34.75
25420;BME280;13354;48.174;11.566;2023-07-20T10:15:33;95581.31;;;27.43;33.98
25420;BME280;13354;48.174;11.566;2023-07-20T10:18:09;95589.56;;;26.91;34.73
25420;BME280;13354;48.174;11.566;2023-07-20T10:20:40;95592.03;;;27.07;34.50
25420;BME280;13354;48.174;11.566;2023-07-20T10:23:06;95588.38;;;27.30;34.43
25420;BME280;13354;48.174;11.566;2023-07-20T10:25:32;95583.34;;;27.51;34.25
25420;BME280;13354;48.174;11.566;2023-07-20T10:28:04;95594.00;;;27.34;33.91
25420;BME280;13354;48.174;11.566;2023-07-20T10:30:30;95588.25;;;26.89;34.29
25420;BME280;13354;48.174;11.566;2023-07-20T10:32:56;95594.25;;;26.53;35.10
25420;BME280;13354;48.174;11.566;2023-07-20T10:35:22;95590.94;;;26.18;35.32
25420;BME280;13354;48.174;11.566;2023-07-20T10:37:54;95589.66;;;25.92;35.71
25420;BME280;13354;48.174;11.566;2023-07-20T10:43:03;95585.25;;;25.53;37.05
25420;BME280;13354;48.174;11.566;2023-07-20T10:45:48;95578.25;;;25.47;37.05
25420;BME280;13354;48.174;11.566;2023-07-20T10:48:15;95576.44;;;25.42;37.38
25420;BME280;13354;48.174;11.566;2023-07-20T10:50:42;95577.56;;;25.36;37.28
25420;BME280;13354;48.174;11.566;2023-07-20T10:55:37;95581.53;;;25.44;37.48
25420;BME280;13354;48.174;11.566;2023-07-20T10:58:10;95577.22;;;25.19;37.69
25420;BME280;13354;48.174;11.566;2023-07-20T11:00:36;95572.44;;;25.05;38.00
25420;BME280;13354;48.174;11.566;2023-07-20T11:03:02;95569.94;;;25.14;38.48
25420;BME280;13354;48.174;11.566;2023-07-20T11:05:35;95580.44;;;25.21;38.41
25420;BME280;13354;48.174;11.566;2023-07-20T11:08:06;95576.19;;;25.10;37.80
25420;BME280;13354;48.174;11.566;2023-07-20T11:10:31;95568.69;;;25.01;37.99
25420;BME280;13354;48.174;11.566;2023-07-20T11:13:16;95558.09;;;25.05;38.17
25420;BME280;13354;48.174;11.566;2023-07-20T11:15:46;95554.59;;;25.04;38.64
25420;BME280;13354;48.174;11.566;2023-07-20T11:18:13;95552.03;;;25.18;38.26
25420;BME280;13354;48.174;11.566;2023-07-20T11:20:38;95551.09;;;25.28;38.09
25420;BME280;13354;48.174;11.566;2023-07-20T11:23:03;95560.38;;;25.22;38.25
25420;BME280;13354;48.174;11.566;2023-07-20T11:25:39;95558.84;;;25.16;38.17
25420;BME280;13354;48.174;11.566;2023-07-20T11:28:08;95551.44;;;25.21;38.12
25420;BME280;13354;48.174;11.566;2023-07-20T11:30:36;95546.75;;;25.75;37.82
25420;BME280;13354;48.174;11.566;2023-07-20T11:33:01;95546.44;;;25.82;36.92
25420;BME280;13354;48.174;11.566;2023-07-20T11:35:27;95551.03;;;25.81;37.29
25420;BME280;13354;48.174;11.566;2023-07-20T11:37:52;95551.41;;;25.69;36.93
25420;BME280;13354;48.174;11.566;2023-07-20T11:40:18;95547.53;;;25.57;36.99
25420;BME280;13354;48.174;11.566;2023-07-20T11:42:43;95556.19;;;25.35;37.46
25420;BME280;13354;48.174;11.566;2023-07-20T11:45:09;95546.66;;;25.13;37.85
25420;BME280;13354;48.174;11.566;2023-07-20T11:47:40;95546.38;;;25.15;38.09
25420;BME280;13354;48.174;11.566;2023-07-20T11:50:07;95538.00;;;25.11;38.36
25420;BME280;13354;48.174;11.566;2023-07-20T11:52:33;95537.09;;;25.21;37.90
25420;BME280;13354;48.174;11.566;2023-07-20T11:54:58;95532.41;;;25.50;37.83
25420;BME280;13354;48.174;11.566;2023-07-20T11:57:24;95529.06;;;25.83;42.38
25420;BME280;13354;48.174;11.566;2023-07-20T11:59:53;95537.72;;;26.22;37.13
25420;BME280;13354;48.174;11.566;2023-07-20T12:02:22;95532.06;;;26.19;36.43
25420;BME280;13354;48.174;11.566;2023-07-20T12:04:48;95520.28;;;26.42;36.87
25420;BME280;13354;48.174;11.566;2023-07-20T12:07:14;95515.63;;;26.29;36.05
25420;BME280;13354;48.174;11.566;2023-07-20T12:09:39;95509.41;;;26.61;37.49
25420;BME280;13354;48.174;11.566;2023-07-20T12:12:13;95512.38;;;26.79;35.87
25420;BME280;13354;48.174;11.566;2023-07-20T12:14:39;95511.47;;;26.83;36.09
25420;BME280;13354;48.174;11.566;2023-07-20T12:17:04;95505.34;;;26.78;36.72
25420;BME280;13354;48.174;11.566;2023-07-20T12:19:29;95511.84;;;26.63;36.29
25420;BME280;13354;48.174;11.566;2023-07-20T12:21:57;95503.50;;;26.59;36.48
25420;BME280;13354;48.174;11.566;2023-07-20T12:24:24;95511.66;;;26.02;36.39
25420;BME280;13354;48.174;11.566;2023-07-20T12:26:56;95510.06;;;25.83;37.25
25420;BME280;13354;48.174;11.566;2023-07-20T12:29:23;95504.44;;;25.98;37.65
25420;BME280;13354;48.174;11.566;2023-07-20T12:31:48;95497.75;;;25.90;37.44
25420;BME280;13354;48.174;11.566;2023-07-20T12:34:13;95503.53;;;26.02;36.53
25420;BME280;13354;48.174;11.566;2023-07-20T12:36:39;95493.31;;;25.57;37.06
25420;BME280;13354;48.174;11.566;2023-07-20T12:39:04;95485.91;;;25.62;37.23
25420;BME280;13354;48.174;11.566;2023-07-20T12:41:30;95492.66;;;25.65;38.05
25420;BME280;13354;48.174;11.566;2023-07-20T12:43:56;95493.38;;;25.51;37.91
25420;BME280;13354;48.174;11.566;2023-07-20T12:46:23;95489.63;;;25.47;37.76
25420;BME280;13354;48.174;11.566;2023-07-20T12:48:49;95474.84;;;25.59;38.01
25420;BME280;13354;48.174;11.566;2023-07-20T12:51:14;95475.44;;;25.56;37.91
25420;BME280;13354;48.174;11.566;2023-07-20T12:53:39;95472.00;;;25.69;37.32
25420;BME280;13354;48.174;11.566;2023-07-20T12:56:05;95471.25;;;25.44;37.39
25420;BME280;13354;48.174;11.566;2023-07-20T12:58:30;95469.97;;;25.80;37.67